sensor_id;sensor_type;location;lat;lon;timestamp;P1;durP1;ratioP1;P2;durP2;ratioP2
62679;SDS011;48746;55.578;37.902;2022-09-03T00:00:36;5.05;;;2.10;;
62679;SDS011;48746;55.578;37.902;2022-09-03T00:03:11;4.32;;;2.10;;
62679;SDS011;48746;55.578;37.902;2022-09-03T00:08:37;4.95;;;2.88;;
62679;SDS011;48746;55.578;37.902;2022-09-03T00:11:24;6.05;;;2.80;;
62679;SDS011;48746;55.578;37.902;2022-09-03T00:14:03;5.68;;;2.60;;
62679;SDS011;48746;55.578;37.902;2022-09-03T00:16:44;5.90;;;2.30;;
62679;SDS011;48746;55.578;37.902;2022-09-03T00:19:19;8.98;;;2.58;;
62679;SDS011;48746;55.578;37.902;2022-09-03T00:21:59;6.90;;;2.38;;
62679;SDS011;48746;55.578;37.902;2022-09-03T00:24:32;5.53;;;1.98;;
62679;SDS011;48746;55.578;37.902;2022-09-03T00:27:01;8.73;;;2.20;;
62679;SDS011;48746;55.578;37.902;2022-09-03T00:29:32;5.50;;;2.22;;
62679;SDS011;48746;55.578;37.902;2022-09-03T00:32:10;7.60;;;2.70;;
62679;SDS011;48746;55.578;37.902;2022-09-03T00:34:42;7.32;;;2.85;;
62679;SDS011;48746;55.578;37.902;2022-09-03T00:37:11;8.32;;;2.40;;
62679;SDS011;48746;55.578;37.902;2022-09-03T00:39:38;7.68;;;2.70;;
62679;SDS011;48746;55.578;37.902;2022-09-03T00:56:02;3.72;;;2.55;;
62679;SDS011;48746;55.578;37.902;2022-09-03T01:04:31;4.03;;;2.20;;
62679;SDS011;48746;55.578;37.902;2022-09-03T01:18:27;4.97;;;2.35;;
62679;SDS011;48746;55.578;37.902;2022-09-03T01:27:13;7.35;;;2.90;;
62679;SDS011;48746;55.578;37.902;2022-09-03T01:35:52;3.08;;;2.25;;
62679;SDS011;48746;55.578;37.902;2022-09-03T01:38:37;11.43;;;2.67;;
62679;SDS011;48746;55.578;37.902;2022-09-03T01:44:41;5.93;;;2.90;;
62679;SDS011;48746;55.578;37.902;2022-09-03T01:50:18;4.93;;;2.60;;
62679;SDS011;48746;55.578;37.902;2022-09-03T01:59:46;5.53;;;2.45;;
62679;SDS011;48746;55.578;37.902;2022-09-03T02:01:58;5.97;;;2.50;;
62679;SDS011;48746;55.578;37.902;2022-09-03T02:04:33;4.38;;;2.70;;
62679;SDS011;48746;55.578;37.902;2022-09-03T02:07:00;9.57;;;2.92;;
62679;SDS011;48746;55.578;37.902;2022-09-03T02:09:27;6.00;;;3.17;;
62679;SDS011;48746;55.578;37.902;2022-09-03T02:12:00;6.32;;;2.92;;
62679;SDS011;48746;55.578;37.902;2022-09-03T02:14:31;4.78;;;2.90;;
62679;SDS011;48746;55.578;37.902;2022-09-03T02:16:57;4.68;;;3.05;;
62679;SDS011;48746;55.578;37.902;2022-09-03T02:19:25;11.60;;;2.95;;
62679;SDS011;48746;55.578;37.902;2022-09-03T02:21:52;9.45;;;3.03;;
62679;SDS011;48746;55.578;37.902;2022-09-03T02:24:19;7.70;;;2.92;;
62679;SDS011;48746;55.578;37.902;2022-09-03T02:26:45;4.47;;;2.67;;
62679;SDS011;48746;55.578;37.902;2022-09-03T02:29:12;8.57;;;2.92;;
62679;SDS011;48746;55.578;37.902;2022-09-03T02:31:43;4.68;;;2.38;;
62679;SDS011;48746;55.578;37.902;2022-09-03T02:34:09;5.30;;;2.30;;
62679;SDS011;48746;55.578;37.902;2022-09-03T02:36:40;7.15;;;2.85;;
62679;SDS011;48746;55.578;37.902;2022-09-03T02:39:11;4.45;;;2.60;;
62679;SDS011;48746;55.578;37.902;2022-09-03T02:41:41;4.85;;;2.90;;
62679;SDS011;48746;55.578;37.902;2022-09-03T02:46:47;8.38;;;2.75;;
62679;SDS011;48746;55.578;37.902;2022-09-03T02:49:18;5.15;;;2.92;;
62679;SDS011;48746;55.578;37.902;2022-09-03T02:51:44;7.55;;;3.10;;
62679;SDS011;48746;55.578;37.902;2022-09-03T02:54:11;7.07;;;3.60;;
62679;SDS011;48746;55.578;37.902;2022-09-03T02:56:39;7.05;;;3.67;;
62679;SDS011;48746;55.578;37.902;2022-09-03T02:59:07;12.77;;;4.47;;
62679;SDS011;48746;55.578;37.902;2022-09-03T03:01:37;14.45;;;4.30;;
62679;SDS011;48746;55.578;37.902;2022-09-03T03:04:03;10.48;;;4.00;;
62679;SDS011;48746;55.578;37.902;2022-09-03T03:06:29;11.52;;;4.07;;
62679;SDS011;48746;55.578;37.902;2022-09-03T03:08:55;8.73;;;3.65;;
62679;SDS011;48746;55.578;37.902;2022-09-03T03:11:25;19.02;;;4.40;;
62679;SDS011;48746;55.578;37.902;2022-09-03T03:13:52;5.93;;;3.70;;
62679;SDS011;48746;55.578;37.902;2022-09-03T03:16:18;5.93;;;3.30;;
62679;SDS011;48746;55.578;37.902;2022-09-03T03:18:44;14.40;;;3.55;;
62679;SDS011;48746;55.578;37.902;2022-09-03T03:24:17;13.35;;;3.40;;
62679;SDS011;48746;55.578;37.902;2022-09-03T03:26:43;10.55;;;3.95;;
62679;SDS011;48746;55.578;37.902;2022-09-03T03:29:13;7.82;;;3.70;;
62679;SDS011;48746;55.578;37.902;2022-09-03T03:34:47;8.38;;;3.42;;
62679;SDS011;48746;55.578;37.902;2022-09-03T03:37:13;9.40;;;3.35;;
62679;SDS011;48746;55.578;37.902;2022-09-03T03:39:39;6.13;;;3.10;;
62679;SDS011;48746;55.578;37.902;2022-09-03T03:42:06;9.13;;;4.03;;
62679;SDS011;48746;55.578;37.902;2022-09-03T03:44:32;8.30;;;3.08;;
62679;SDS011;48746;55.578;37.902;2022-09-03T03:46:58;7.95;;;2.75;;
62679;SDS011;48746;55.578;37.902;2022-09-03T03:49:24;3.72;;;2.55;;
62679;SDS011;48746;55.578;37.902;2022-09-03T03:54:57;6.45;;;2.80;;
62679;SDS011;48746;55.578;37.902;2022-09-03T03:57:23;5.03;;;2.60;;
62679;SDS011;48746;55.578;37.902;2022-09-03T03:59:50;5.22;;;2.63;;
62679;SDS011;48746;55.578;37.902;2022-09-03T04:05:23;5.15;;;2.95;;
62679;SDS011;48746;55.578;37.902;2022-09-03T04:07:49;8.50;;;2.80;;
62679;SDS011;48746;55.578;37.902;2022-09-03T04:10:15;9.45;;;2.90;;
62679;SDS011;48746;55.578;37.902;2022-09-03T04:12:42;5.03;;;2.55;;
62679;SDS011;48746;55.578;37.902;2022-09-03T04:15:08;10.98;;;3.47;;
62679;SDS011;48746;55.578;37.902;2022-09-03T04:17:34;8.18;;;3.88;;
62679;SDS011;48746;55.578;37.902;2022-09-03T04:20:01;8.48;;;3.40;;
62679;SDS011;48746;55.578;37.902;2022-09-03T04:25:36;7.13;;;3.13;;
62679;SDS011;48746;55.578;37.902;2022-09-03T04:28:02;8.32;;;3.47;;
62679;SDS011;48746;55.578;37.902;2022-09-03T04:30:32;11.35;;;3.17;;
62679;SDS011;48746;55.578;37.902;2022-09-03T04:32:58;11.93;;;3.05;;
62679;SDS011;48746;55.578;37.902;2022-09-03T04:35:25;7.25;;;2.80;;
62679;SDS011;48746;55.578;37.902;2022-09-03T04:37:56;9.07;;;3.17;;
62679;SDS011;48746;55.578;37.902;2022-09-03T04:40:22;9.90;;;3.28;;
62679;SDS011;48746;55.578;37.902;2022-09-03T04:42:49;12.10;;;3.33;;
62679;SDS011;48746;55.578;37.902;2022-09-03T04:45:15;8.73;;;3.33;;
62679;SDS011;48746;55.578;37.902;2022-09-03T04:47:44;8.80;;;2.53;;
62679;SDS011;48746;55.578;37.902;2022-09-03T04:50:20;11.45;;;2.75;;
62679;SDS011;48746;55.578;37.902;2022-09-03T04:53:01;5.75;;;2.78;;
62679;SDS011;48746;55.578;37.902;2022-09-03T04:55:32;4.90;;;2.50;;
62679;SDS011;48746;55.578;37.902;2022-09-03T04:58:02;17.42;;;8.55;;
62679;SDS011;48746;55.578;37.902;2022-09-03T05:00:29;5.93;;;3.00;;
62679;SDS011;48746;55.578;37.902;2022-09-03T05:02:59;10.38;;;3.40;;
62679;SDS011;48746;55.578;37.902;2022-09-03T05:05:25;6.80;;;3.10;;
62679;SDS011;48746;55.578;37.902;2022-09-03T05:07:51;7.38;;;3.20;;
62679;SDS011;48746;55.578;37.902;2022-09-03T05:10:18;8.80;;;2.85;;
62679;SDS011;48746;55.578;37.902;2022-09-03T05:13:04;5.50;;;3.05;;
62679;SDS011;48746;55.578;37.902;2022-09-03T05:15:30;8.18;;;2.80;;
62679;SDS011;48746;55.578;37.902;2022-09-03T05:18:01;8.40;;;2.40;;
62679;SDS011;48746;55.578;37.902;2022-09-03T05:20:28;7.25;;;3.03;;
62679;SDS011;48746;55.578;37.902;2022-09-03T05:22:55;8.05;;;2.78;;
62679;SDS011;48746;55.578;37.902;2022-09-03T05:25:22;14.68;;;3.15;;
62679;SDS011;48746;55.578;37.902;2022-09-03T05:27:49;9.73;;;2.72;;
62679;SDS011;48746;55.578;37.902;2022-09-03T05:30:16;12.68;;;2.88;;
62679;SDS011;48746;55.578;37.902;2022-09-03T05:32:42;4.20;;;2.55;;
62679;SDS011;48746;55.578;37.902;2022-09-03T05:35:09;5.25;;;2.58;;
62679;SDS011;48746;55.578;37.902;2022-09-03T05:37:35;5.80;;;2.47;;
62679;SDS011;48746;55.578;37.902;2022-09-03T05:40:02;7.18;;;2.53;;
62679;SDS011;48746;55.578;37.902;2022-09-03T05:42:29;6.60;;;2.92;;
62679;SDS011;48746;55.578;37.902;2022-09-03T05:44:57;8.10;;;2.70;;
62679;SDS011;48746;55.578;37.902;2022-09-03T05:47:23;6.50;;;2.63;;
62679;SDS011;48746;55.578;37.902;2022-09-03T05:49:49;13.07;;;2.80;;
62679;SDS011;48746;55.578;37.902;2022-09-03T05:55:22;19.25;;;3.30;;
62679;SDS011;48746;55.578;37.902;2022-09-03T05:57:51;9.45;;;2.90;;
62679;SDS011;48746;55.578;37.902;2022-09-03T06:00:18;12.05;;;2.13;;
62679;SDS011;48746;55.578;37.902;2022-09-03T06:02:51;9.88;;;2.50;;
62679;SDS011;48746;55.578;37.902;2022-09-03T06:05:19;4.95;;;1.75;;
62679;SDS011;48746;55.578;37.902;2022-09-03T06:07:45;2.60;;;1.60;;
62679;SDS011;48746;55.578;37.902;2022-09-03T06:10:15;2.78;;;1.70;;
62679;SDS011;48746;55.578;37.902;2022-09-03T06:12:42;6.95;;;1.90;;
62679;SDS011;48746;55.578;37.902;2022-09-03T06:15:15;3.88;;;1.50;;
62679;SDS011;48746;55.578;37.902;2022-09-03T06:17:41;4.97;;;1.88;;
62679;SDS011;48746;55.578;37.902;2022-09-03T06:20:08;3.88;;;1.80;;
62679;SDS011;48746;55.578;37.902;2022-09-03T06:22:34;4.78;;;1.40;;
62679;SDS011;48746;55.578;37.902;2022-09-03T06:25:01;8.20;;;1.90;;
62679;SDS011;48746;55.578;37.902;2022-09-03T06:27:28;3.05;;;1.40;;
62679;SDS011;48746;55.578;37.902;2022-09-03T06:29:55;7.97;;;3.20;;
62679;SDS011;48746;55.578;37.902;2022-09-03T06:32:23;12.27;;;3.72;;
62679;SDS011;48746;55.578;37.902;2022-09-03T06:34:49;4.75;;;2.35;;
62679;SDS011;48746;55.578;37.902;2022-09-03T06:37:15;8.07;;;1.70;;
62679;SDS011;48746;55.578;37.902;2022-09-03T06:39:42;5.15;;;1.33;;
62679;SDS011;48746;55.578;37.902;2022-09-03T06:42:08;4.15;;;2.42;;
62679;SDS011;48746;55.578;37.902;2022-09-03T06:44:35;10.65;;;1.30;;
62679;SDS011;48746;55.578;37.902;2022-09-03T06:47:01;4.60;;;2.40;;
62679;SDS011;48746;55.578;37.902;2022-09-03T06:49:27;7.38;;;1.55;;
62679;SDS011;48746;55.578;37.902;2022-09-03T06:55:03;3.25;;;1.75;;
62679;SDS011;48746;55.578;37.902;2022-09-03T06:57:29;10.38;;;2.15;;
62679;SDS011;48746;55.578;37.902;2022-09-03T06:59:55;9.43;;;1.80;;
62679;SDS011;48746;55.578;37.902;2022-09-03T07:02:21;5.72;;;1.35;;
62679;SDS011;48746;55.578;37.902;2022-09-03T07:04:48;10.10;;;4.63;;
62679;SDS011;48746;55.578;37.902;2022-09-03T07:07:15;9.63;;;1.42;;
62679;SDS011;48746;55.578;37.902;2022-09-03T07:09:41;2.75;;;1.33;;
62679;SDS011;48746;55.578;37.902;2022-09-03T07:15:14;2.50;;;1.92;;
62679;SDS011;48746;55.578;37.902;2022-09-03T07:17:40;5.35;;;1.52;;
62679;SDS011;48746;55.578;37.902;2022-09-03T07:20:07;7.00;;;1.90;;
62679;SDS011;48746;55.578;37.902;2022-09-03T07:22:33;1.65;;;1.15;;
62679;SDS011;48746;55.578;37.902;2022-09-03T07:25:00;3.47;;;1.08;;
62679;SDS011;48746;55.578;37.902;2022-09-03T07:27:28;13.18;;;1.92;;
62679;SDS011;48746;55.578;37.902;2022-09-03T07:29:55;6.53;;;1.77;;
62679;SDS011;48746;55.578;37.902;2022-09-03T07:32:21;14.85;;;1.20;;
62679;SDS011;48746;55.578;37.902;2022-09-03T07:34:47;4.75;;;2.28;;
62679;SDS011;48746;55.578;37.902;2022-09-03T07:37:13;3.13;;;1.60;;
62679;SDS011;48746;55.578;37.902;2022-09-03T07:39:40;3.95;;;1.40;;
62679;SDS011;48746;55.578;37.902;2022-09-03T07:45:14;6.72;;;1.58;;
62679;SDS011;48746;55.578;37.902;2022-09-03T07:47:46;7.78;;;4.07;;
62679;SDS011;48746;55.578;37.902;2022-09-03T07:50:14;1.98;;;1.15;;
62679;SDS011;48746;55.578;37.902;2022-09-03T07:52:40;7.70;;;1.77;;
62679;SDS011;48746;55.578;37.902;2022-09-03T07:55:07;11.05;;;2.85;;
62679;SDS011;48746;55.578;37.902;2022-09-03T07:57:34;4.90;;;1.67;;
62679;SDS011;48746;55.578;37.902;2022-09-03T08:00:01;6.63;;;3.35;;
62679;SDS011;48746;55.578;37.902;2022-09-03T08:02:37;3.10;;;1.13;;
62679;SDS011;48746;55.578;37.902;2022-09-03T08:05:04;8.73;;;2.40;;
62679;SDS011;48746;55.578;37.902;2022-09-03T08:07:31;5.78;;;1.33;;
62679;SDS011;48746;55.578;37.902;2022-09-03T08:09:58;4.95;;;1.50;;
62679;SDS011;48746;55.578;37.902;2022-09-03T08:15:31;8.05;;;3.33;;
62679;SDS011;48746;55.578;37.902;2022-09-03T08:17:59;1.63;;;1.00;;
62679;SDS011;48746;55.578;37.902;2022-09-03T08:20:28;9.20;;;1.27;;
62679;SDS011;48746;55.578;37.902;2022-09-03T08:23:01;1.40;;;1.25;;
62679;SDS011;48746;55.578;37.902;2022-09-03T08:25:28;6.82;;;1.13;;
62679;SDS011;48746;55.578;37.902;2022-09-03T08:27:56;10.43;;;1.80;;
62679;SDS011;48746;55.578;37.902;2022-09-03T08:30:26;3.15;;;1.20;;
62679;SDS011;48746;55.578;37.902;2022-09-03T08:32:53;7.07;;;1.10;;
62679;SDS011;48746;55.578;37.902;2022-09-03T08:35:20;2.45;;;1.00;;
62679;SDS011;48746;55.578;37.902;2022-09-03T08:37:47;7.13;;;1.60;;
62679;SDS011;48746;55.578;37.902;2022-09-03T08:40:18;2.83;;;1.00;;
62679;SDS011;48746;55.578;37.902;2022-09-03T08:42:57;3.97;;;1.45;;
62679;SDS011;48746;55.578;37.902;2022-09-03T08:45:32;2.95;;;1.00;;
62679;SDS011;48746;55.578;37.902;2022-09-03T08:48:04;9.77;;;1.92;;
62679;SDS011;48746;55.578;37.902;2022-09-03T08:50:40;1.30;;;1.10;;
62679;SDS011;48746;55.578;37.902;2022-09-03T08:55:49;5.90;;;1.45;;
62679;SDS011;48746;55.578;37.902;2022-09-03T08:58:24;7.65;;;2.10;;
62679;SDS011;48746;55.578;37.902;2022-09-03T09:00:56;8.13;;;1.70;;
62679;SDS011;48746;55.578;37.902;2022-09-03T09:06:15;4.07;;;2.10;;
62679;SDS011;48746;55.578;37.902;2022-09-03T09:11:25;11.05;;;2.40;;
62679;SDS011;48746;55.578;37.902;2022-09-03T09:14:11;7.57;;;1.10;;
62679;SDS011;48746;55.578;37.902;2022-09-03T09:19:30;6.35;;;1.15;;
62679;SDS011;48746;55.578;37.902;2022-09-03T09:22:07;4.60;;;2.47;;
62679;SDS011;48746;55.578;37.902;2022-09-03T09:24:39;15.40;;;2.20;;
62679;SDS011;48746;55.578;37.902;2022-09-03T09:27:07;6.30;;;1.15;;
62679;SDS011;48746;55.578;37.902;2022-09-03T09:29:35;5.00;;;1.10;;
62679;SDS011;48746;55.578;37.902;2022-09-03T09:32:03;2.13;;;1.33;;
62679;SDS011;48746;55.578;37.902;2022-09-03T09:34:36;3.35;;;1.38;;
62679;SDS011;48746;55.578;37.902;2022-09-03T09:37:05;3.05;;;1.20;;
62679;SDS011;48746;55.578;37.902;2022-09-03T09:39:34;2.65;;;0.90;;
62679;SDS011;48746;55.578;37.902;2022-09-03T09:45:09;5.38;;;0.98;;
62679;SDS011;48746;55.578;37.902;2022-09-03T09:47:38;3.67;;;1.10;;
62679;SDS011;48746;55.578;37.902;2022-09-03T09:50:15;9.02;;;1.35;;
62679;SDS011;48746;55.578;37.902;2022-09-03T09:52:42;2.53;;;1.20;;
62679;SDS011;48746;55.578;37.902;2022-09-03T09:55:19;4.90;;;1.10;;
62679;SDS011;48746;55.578;37.902;2022-09-03T09:57:48;7.63;;;1.65;;
62679;SDS011;48746;55.578;37.902;2022-09-03T10:00:18;4.18;;;1.27;;
62679;SDS011;48746;55.578;37.902;2022-09-03T10:02:49;3.72;;;1.20;;
62679;SDS011;48746;55.578;37.902;2022-09-03T10:05:20;5.47;;;1.08;;
62679;SDS011;48746;55.578;37.902;2022-09-03T10:07:58;2.83;;;0.95;;
62679;SDS011;48746;55.578;37.902;2022-09-03T10:10:31;3.60;;;0.90;;
62679;SDS011;48746;55.578;37.902;2022-09-03T10:13:06;2.65;;;1.75;;
62679;SDS011;48746;55.578;37.902;2022-09-03T10:15:47;2.10;;;1.40;;
62679;SDS011;48746;55.578;37.902;2022-09-03T10:18:26;5.85;;;2.30;;
62679;SDS011;48746;55.578;37.902;2022-09-03T10:26:40;7.50;;;1.15;;
62679;SDS011;48746;55.578;37.902;2022-09-03T10:29:09;6.68;;;1.67;;
62679;SDS011;48746;55.578;37.902;2022-09-03T10:31:39;3.88;;;1.00;;
62679;SDS011;48746;55.578;37.902;2022-09-03T10:36:59;3.72;;;1.00;;
62679;SDS011;48746;55.578;37.902;2022-09-03T10:48:21;1.20;;;0.90;;
62679;SDS011;48746;55.578;37.902;2022-09-03T10:51:00;4.95;;;1.58;;
62679;SDS011;48746;55.578;37.902;2022-09-03T11:06:57;2.88;;;1.17;;
62679;SDS011;48746;55.578;37.902;2022-09-03T11:09:37;9.45;;;2.05;;
62679;SDS011;48746;55.578;37.902;2022-09-03T11:12:36;6.97;;;1.98;;
62679;SDS011;48746;55.578;37.902;2022-09-03T11:15:10;11.00;;;1.05;;
62679;SDS011;48746;55.578;37.902;2022-09-03T11:17:48;7.72;;;1.60;;
62679;SDS011;48746;55.578;37.902;2022-09-03T11:20:22;1.13;;;0.70;;
62679;SDS011;48746;55.578;37.902;2022-09-03T11:22:56;3.78;;;0.90;;
62679;SDS011;48746;55.578;37.902;2022-09-03T11:25:35;1.77;;;0.80;;
62679;SDS011;48746;55.578;37.902;2022-09-03T11:33:58;6.95;;;1.17;;
62679;SDS011;48746;55.578;37.902;2022-09-03T11:36:41;4.47;;;1.38;;
62679;SDS011;48746;55.578;37.902;2022-09-03T11:39:21;6.55;;;1.33;;
62679;SDS011;48746;55.578;37.902;2022-09-03T11:47:44;3.95;;;0.98;;
62679;SDS011;48746;55.578;37.902;2022-09-03T11:52:48;3.78;;;2.88;;
62679;SDS011;48746;55.578;37.902;2022-09-03T11:57:52;1.20;;;0.93;;
62679;SDS011;48746;55.578;37.902;2022-09-03T12:00:18;5.88;;;1.17;;
62679;SDS011;48746;55.578;37.902;2022-09-03T12:02:48;4.10;;;0.80;;
62679;SDS011;48746;55.578;37.902;2022-09-03T12:08:46;3.00;;;0.88;;
62679;SDS011;48746;55.578;37.902;2022-09-03T12:23:49;3.33;;;0.80;;
62679;SDS011;48746;55.578;37.902;2022-09-03T12:26:18;6.80;;;1.02;;
62679;SDS011;48746;55.578;37.902;2022-09-03T12:28:46;3.38;;;0.85;;
62679;SDS011;48746;55.578;37.902;2022-09-03T12:34:21;3.28;;;1.45;;
62679;SDS011;48746;55.578;37.902;2022-09-03T12:36:49;4.05;;;1.70;;
62679;SDS011;48746;55.578;37.902;2022-09-03T12:44:51;4.05;;;1.95;;
62679;SDS011;48746;55.578;37.902;2022-09-03T12:47:19;7.72;;;3.08;;
62679;SDS011;48746;55.578;37.902;2022-09-03T12:49:50;6.07;;;0.73;;
62679;SDS011;48746;55.578;37.902;2022-09-03T13:00:48;5.57;;;0.70;;
62679;SDS011;48746;55.578;37.902;2022-09-03T13:03:23;2.40;;;1.10;;
62679;SDS011;48746;55.578;37.902;2022-09-03T13:05:56;3.33;;;0.93;;
62679;SDS011;48746;55.578;37.902;2022-09-03T13:08:26;2.40;;;1.00;;
62679;SDS011;48746;55.578;37.902;2022-09-03T13:10:59;3.13;;;0.93;;
62679;SDS011;48746;55.578;37.902;2022-09-03T13:13:33;1.75;;;1.00;;
62679;SDS011;48746;55.578;37.902;2022-09-03T13:21:32;5.40;;;1.70;;
62679;SDS011;48746;55.578;37.902;2022-09-03T13:29:37;5.43;;;2.00;;
62679;SDS011;48746;55.578;37.902;2022-09-03T13:37:44;2.53;;;1.20;;
62679;SDS011;48746;55.578;37.902;2022-09-03T13:40:17;9.52;;;1.40;;
62679;SDS011;48746;55.578;37.902;2022-09-03T13:42:52;3.83;;;1.08;;
62679;SDS011;48746;55.578;37.902;2022-09-03T13:48:15;2.22;;;1.42;;
62679;SDS011;48746;55.578;37.902;2022-09-03T13:54:26;3.00;;;1.35;;
62679;SDS011;48746;55.578;37.902;2022-09-03T13:56:58;4.95;;;1.40;;
62679;SDS011;48746;55.578;37.902;2022-09-03T14:11:23;1.58;;;1.02;;
62679;SDS011;48746;55.578;37.902;2022-09-03T14:19:38;5.68;;;1.15;;
62679;SDS011;48746;55.578;37.902;2022-09-03T14:27:21;5.30;;;1.07;;
62679;SDS011;48746;55.578;37.902;2022-09-03T14:30:33;3.15;;;1.00;;
62679;SDS011;48746;55.578;37.902;2022-09-03T15:08:01;4.43;;;1.50;;
62679;SDS011;48746;55.578;37.902;2022-09-03T15:10:50;5.88;;;2.17;;
62679;SDS011;48746;55.578;37.902;2022-09-03T15:13:26;8.30;;;1.73;;
62679;SDS011;48746;55.578;37.902;2022-09-03T15:18:31;5.80;;;2.90;;
62679;SDS011;48746;55.578;37.902;2022-09-03T15:34:38;12.00;;;2.65;;
62679;SDS011;48746;55.578;37.902;2022-09-03T15:37:11;8.05;;;2.75;;
62679;SDS011;48746;55.578;37.902;2022-09-03T15:39:41;9.60;;;4.55;;
62679;SDS011;48746;55.578;37.902;2022-09-03T15:42:09;13.05;;;3.45;;
62679;SDS011;48746;55.578;37.902;2022-09-03T15:44:41;8.88;;;3.35;;
62679;SDS011;48746;55.578;37.902;2022-09-03T15:53:44;4.25;;;2.10;;
62679;SDS011;48746;55.578;37.902;2022-09-03T15:56:21;6.15;;;1.50;;
62679;SDS011;48746;55.578;37.902;2022-09-03T16:07:25;5.05;;;1.92;;
62679;SDS011;48746;55.578;37.902;2022-09-03T16:12:32;1.58;;;1.20;;
62679;SDS011;48746;55.578;37.902;2022-09-03T16:15:20;4.60;;;2.07;;
62679;SDS011;48746;55.578;37.902;2022-09-03T16:20:44;5.63;;;2.30;;
62679;SDS011;48746;55.578;37.902;2022-09-03T16:26:32;5.95;;;2.75;;
62679;SDS011;48746;55.578;37.902;2022-09-03T16:29:11;3.92;;;2.60;;
62679;SDS011;48746;55.578;37.902;2022-09-03T16:31:50;6.03;;;2.88;;
62679;SDS011;48746;55.578;37.902;2022-09-03T16:34:44;5.47;;;2.70;;
62679;SDS011;48746;55.578;37.902;2022-09-03T16:42:27;6.53;;;3.13;;
62679;SDS011;48746;55.578;37.902;2022-09-03T16:56:23;5.25;;;3.13;;
62679;SDS011;48746;55.578;37.902;2022-09-03T17:07:32;13.63;;;4.28;;
62679;SDS011;48746;55.578;37.902;2022-09-03T17:12:57;4.65;;;3.38;;
62679;SDS011;48746;55.578;37.902;2022-09-03T17:24:02;10.55;;;4.78;;
62679;SDS011;48746;55.578;37.902;2022-09-03T17:29:39;8.45;;;5.28;;
62679;SDS011;48746;55.578;37.902;2022-09-03T17:48:46;17.42;;;12.00;;
62679;SDS011;48746;55.578;37.902;2022-09-03T17:54:23;18.50;;;14.27;;
62679;SDS011;48746;55.578;37.902;2022-09-03T17:57:21;18.85;;;12.63;;
62679;SDS011;48746;55.578;37.902;2022-09-03T18:13:53;16.10;;;10.57;;
62679;SDS011;48746;55.578;37.902;2022-09-03T18:16:40;14.50;;;9.15;;
62679;SDS011;48746;55.578;37.902;2022-09-03T18:19:18;13.38;;;8.27;;
62679;SDS011;48746;55.578;37.902;2022-09-03T18:25:16;13.25;;;8.10;;
62679;SDS011;48746;55.578;37.902;2022-09-03T18:28:05;13.90;;;7.93;;
62679;SDS011;48746;55.578;37.902;2022-09-03T18:30:56;18.30;;;8.20;;
62679;SDS011;48746;55.578;37.902;2022-09-03T18:33:41;19.02;;;8.65;;
62679;SDS011;48746;55.578;37.902;2022-09-03T18:36:26;18.13;;;8.85;;
62679;SDS011;48746;55.578;37.902;2022-09-03T18:39:15;19.05;;;8.48;;
62679;SDS011;48746;55.578;37.902;2022-09-03T18:42:17;22.52;;;8.95;;
62679;SDS011;48746;55.578;37.902;2022-09-03T18:48:15;21.35;;;8.50;;
62679;SDS011;48746;55.578;37.902;2022-09-03T19:00:55;18.83;;;9.65;;
62679;SDS011;48746;55.578;37.902;2022-09-03T19:04:51;17.40;;;9.95;;
62679;SDS011;48746;55.578;37.902;2022-09-03T19:07:10;21.10;;;9.70;;
62679;SDS011;48746;55.578;37.902;2022-09-03T19:19:02;16.58;;;8.98;;
62679;SDS011;48746;55.578;37.902;2022-09-03T19:25:13;28.80;;;9.27;;
62679;SDS011;48746;55.578;37.902;2022-09-03T19:33:56;18.90;;;7.88;;
62679;SDS011;48746;55.578;37.902;2022-09-03T19:55:23;15.88;;;6.80;;
62679;SDS011;48746;55.578;37.902;2022-09-03T19:58:10;22.17;;;7.03;;
62679;SDS011;48746;55.578;37.902;2022-09-03T20:00:59;18.02;;;7.20;;
62679;SDS011;48746;55.578;37.902;2022-09-03T20:03:44;15.00;;;7.10;;
62679;SDS011;48746;55.578;37.902;2022-09-03T20:06:30;15.18;;;8.43;;
62679;SDS011;48746;55.578;37.902;2022-09-03T20:09:17;23.35;;;9.43;;
62679;SDS011;48746;55.578;37.902;2022-09-03T20:12:06;20.23;;;9.80;;
62679;SDS011;48746;55.578;37.902;2022-09-03T20:14:36;25.52;;;10.95;;
62679;SDS011;48746;55.578;37.902;2022-09-03T20:22:30;24.15;;;13.05;;
62679;SDS011;48746;55.578;37.902;2022-09-03T20:25:05;23.20;;;12.57;;
62679;SDS011;48746;55.578;37.902;2022-09-03T20:33:51;22.33;;;10.57;;
62679;SDS011;48746;55.578;37.902;2022-09-03T20:39:37;18.67;;;9.43;;
62679;SDS011;48746;55.578;37.902;2022-09-03T20:48:02;17.38;;;7.63;;
62679;SDS011;48746;55.578;37.902;2022-09-03T20:50:52;16.55;;;6.80;;
62679;SDS011;48746;55.578;37.902;2022-09-03T20:53:31;17.63;;;7.22;;
62679;SDS011;48746;55.578;37.902;2022-09-03T20:56:29;12.43;;;6.13;;
62679;SDS011;48746;55.578;37.902;2022-09-03T20:59:07;11.65;;;6.18;;
62679;SDS011;48746;55.578;37.902;2022-09-03T21:02:08;17.92;;;7.05;;
62679;SDS011;48746;55.578;37.902;2022-09-03T21:10:18;16.55;;;6.80;;
62679;SDS011;48746;55.578;37.902;2022-09-03T21:15:22;15.07;;;6.80;;
62679;SDS011;48746;55.578;37.902;2022-09-03T21:24:03;16.33;;;5.85;;
62679;SDS011;48746;55.578;37.902;2022-09-03T21:26:35;12.45;;;5.35;;
62679;SDS011;48746;55.578;37.902;2022-09-03T21:29:08;11.73;;;5.63;;
62679;SDS011;48746;55.578;37.902;2022-09-03T21:37:23;13.35;;;4.50;;
62679;SDS011;48746;55.578;37.902;2022-09-03T21:39:53;18.80;;;4.35;;
62679;SDS011;48746;55.578;37.902;2022-09-03T21:45:33;14.88;;;4.97;;
62679;SDS011;48746;55.578;37.902;2022-09-03T21:48:06;10.15;;;4.88;;
62679;SDS011;48746;55.578;37.902;2022-09-03T21:53:43;20.35;;;5.78;;
62679;SDS011;48746;55.578;37.902;2022-09-03T21:59:04;15.93;;;8.25;;
62679;SDS011;48746;55.578;37.902;2022-09-03T22:04:41;18.65;;;12.25;;
62679;SDS011;48746;55.578;37.902;2022-09-03T22:09:43;17.85;;;11.00;;
62679;SDS011;48746;55.578;37.902;2022-09-03T22:15:20;11.00;;;5.63;;
62679;SDS011;48746;55.578;37.902;2022-09-03T22:17:47;9.60;;;5.60;;
62679;SDS011;48746;55.578;37.902;2022-09-03T22:20:23;11.10;;;5.45;;
62679;SDS011;48746;55.578;37.902;2022-09-03T22:23:06;11.73;;;5.60;;
62679;SDS011;48746;55.578;37.902;2022-09-03T22:25:54;11.98;;;5.15;;
62679;SDS011;48746;55.578;37.902;2022-09-03T22:28:36;13.10;;;5.10;;
62679;SDS011;48746;55.578;37.902;2022-09-03T22:56:03;10.93;;;5.40;;
62679;SDS011;48746;55.578;37.902;2022-09-03T22:58:44;17.70;;;5.75;;
62679;SDS011;48746;55.578;37.902;2022-09-03T23:07:16;13.30;;;5.93;;
62679;SDS011;48746;55.578;37.902;2022-09-03T23:09:47;11.95;;;5.40;;
62679;SDS011;48746;55.578;37.902;2022-09-03T23:12:25;12.85;;;5.82;;
62679;SDS011;48746;55.578;37.902;2022-09-03T23:14:56;13.05;;;5.85;;
62679;SDS011;48746;55.578;37.902;2022-09-03T23:17:31;13.25;;;5.70;;
62679;SDS011;48746;55.578;37.902;2022-09-03T23:20:01;12.07;;;5.90;;
62679;SDS011;48746;55.578;37.902;2022-09-03T23:22:34;11.38;;;5.75;;
62679;SDS011;48746;55.578;37.902;2022-09-03T23:27:32;9.73;;;5.32;;
62679;SDS011;48746;55.578;37.902;2022-09-03T23:30:02;10.30;;;5.40;;
62679;SDS011;48746;55.578;37.902;2022-09-03T23:32:29;10.70;;;5.38;;
62679;SDS011;48746;55.578;37.902;2022-09-03T23:34:56;14.02;;;5.60;;
62679;SDS011;48746;55.578;37.902;2022-09-03T23:40:39;11.57;;;4.72;;
62679;SDS011;48746;55.578;37.902;2022-09-03T23:46:48;10.48;;;5.00;;
62679;SDS011;48746;55.578;37.902;2022-09-03T23:57:38;14.73;;;5.65;;
